Prince George Airport
CYXS : now visible

Airfield :











YOU CAN JOIN US ON...

 
LOGIN :

Register | Disclaimer

   EN    FR    IT 

 









Legend :    VFR   Marginal VFR   IFR   Intensive IFR   Very Intensive IFR
Visi :
Ceiling :
>= 8 km
>= 3000ft
5 to 8 km
1000 to 3000 ft
1500m to 5 km
500 to 1000 ft
800 to 1500m
200 to 500 ft
< 800m
< 200 ft
Symbols :   Thunderstorms  Fog  Heavy snow  Heavy precipitations  Wind > 20 kt






- Airport Elevation : 2267 ft
- IATA code : YXS


CYXS - Prince George

METAR N/A
TAF AMD TAF CYXS
Valid from the 24 at 19:00 until the 25 at 07:00 UTC


241919Z 2419/2507 23015G25KT P6SM BKN060
TEMPO 2419/2503 P6SM -SHRA BKN040
BECMG 2421/2423 29010KT
FM250300 VRB03KT P6SM BKN060 RMK FCST BASED ON AUTO OBS. NXT FCST BY 250100Z
CZVR FIR / North America



MET'MAP, your aeronautical weather chart ! - Copyright ORBIFLY December 2007 - Disclaimer

ORBIFLY MET'MAP TEAM :

Programming & Development : Alexandra Zaïnal
Original concept : Baudouin d'Aumeries
Technical & hardware support : Manuel Goepfert
Assistance : Marc-Olivier Méhu




SOURCES & CREDITS :

   NOAA       Earth
Advisory